| time (UTC) | temp C | wind direction | speed KPH | gust KPH | rain 1hr cm | rain 24hr cm | rain mn cm | humidity % | barometer mb |
| 20260505170016 | 25 | 225 | 6.4 | 19.3 | 0.00 | 0.00 | 0.00 | 46 | 1009.3 |
| 20260505165517 | 25 | 225 | 8.0 | 22.5 | 0.00 | 0.00 | 0.00 | 46 | 1009.5 |
| 20260505165016 | 25 | 225 | 9.7 | 24.1 | 0.00 | 0.00 | 0.00 | 46 | 1009.3 |
| 20260505164517 | 25 | 203 | 6.4 | 12.9 | 0.00 | 0.00 | 0.00 | 46 | 1009.2 |
| 20260505164039 | 25 | 225 | 4.8 | 12.9 | 0.00 | 0.00 | 0.00 | 46 | 1009.3 |
| 20260505163517 | 24 | 225 | 6.4 | 14.5 | 0.00 | 0.00 | 0.00 | 46 | 1009.4 |
| 20260505163037 | 24 | 225 | 6.4 | 16.1 | 0.00 | 0.00 | 0.00 | 47 | 1009.4 |
| 20260505162516 | 24 | 225 | 6.4 | 17.7 | 0.00 | 0.00 | 0.00 | 47 | 1009.6 |
| 20260505162016 | 24 | 225 | 8.0 | 16.1 | 0.00 | 0.00 | 0.00 | 46 | 1009.7 |
| 20260505161517 | 24 | 225 | 6.4 | 16.1 | 0.00 | 0.00 | 0.00 | 47 | 1009.7 |
| 20260505161016 | 24 | 225 | 6.4 | 20.9 | 0.00 | 0.00 | 0.00 | 47 | 1009.6 |
| 20260505160516 | 24 | 225 | 8.0 | 22.5 | 0.00 | 0.00 | 0.00 | 47 | 1009.6 |
| 20260505153017 | 23 | 225 | 6.4 | 20.9 | 0.00 | 0.00 | 0.00 | 48 | 1009.5 |
| 20260505152536 | 23 | 225 | 4.8 | 16.1 | 0.00 | 0.00 | 0.00 | 48 | 1009.4 |
| 20260505152016 | 23 | 225 | 4.8 | 14.5 | 0.00 | 0.00 | 0.00 | 48 | 1009.5 |
| 20260505151537 | 23 | 225 | 8.0 | 19.3 | 0.00 | 0.00 | 0.00 | 48 | 1009.6 |
| 20260505151016 | 23 | 225 | 9.7 | 20.9 | 0.00 | 0.00 | 0.00 | 48 | 1009.7 |
| 20260505150516 | 23 | 225 | 6.4 | 16.1 | 0.00 | 0.00 | 0.00 | 47 | 1009.6 |
| 20260505140516 | 22 | 225 | 8.0 | 17.7 | 0.00 | 0.00 | 0.00 | 48 | 1009.3 |
| 20260505125016 | 21 | 225 | 3.2 | 9.7 | 0.00 | 0.00 | 0.00 | 48 | 1008.7 |
| 20260505124516 | 21 | 225 | 4.8 | 12.9 | 0.00 | 0.00 | 0.00 | 48 | 1008.7 |
| 20260505124016 | 21 | 248 | 4.8 | 16.1 | 0.00 | 0.00 | 0.00 | 48 | 1008.6 |
| 20260505123516 | 21 | 225 | 4.8 | 17.7 | 0.00 | 0.00 | 0.00 | 48 | 1008.8 |
| 20260505123016 | 21 | 225 | 6.4 | 14.5 | 0.00 | 0.00 | 0.00 | 48 | 1008.7 |
| 20260505122516 | 21 | 203 | 3.2 | 16.1 | 0.00 | 0.00 | 0.00 | 48 | 1008.5 |
| 20260505122016 | 21 | 225 | 4.8 | 11.3 | 0.00 | 0.00 | 0.00 | 48 | 1008.6 |
| 20260505121517 | 21 | 203 | 6.4 | 16.1 | 0.00 | 0.00 | 0.00 | 48 | 1008.5 |
| 20260505121036 | 21 | 225 | 4.8 | 12.9 | 0.00 | 0.00 | 0.00 | 48 | 1008.5 |
| 20260505120516 | 21 | 225 | 4.8 | 14.5 | 0.00 | 0.00 | 0.00 | 48 | 1008.6 |
| 20260505120016 | 21 | 203 | 6.4 | 17.7 | 0.00 | 0.00 | 0.00 | 48 | 1008.5 |
| 20260505115517 | 21 | 225 | 4.8 | 11.3 | 0.00 | 0.00 | 0.00 | 48 | 1008.5 |
| 20260505115016 | 21 | 225 | 6.4 | 17.7 | 0.00 | 0.00 | 0.00 | 49 | 1008.5 |
| 20260505114516 | 21 | 225 | 8.0 | 17.7 | 0.00 | 0.00 | 0.00 | 49 | 1008.3 |
| 20260505114036 | 21 | 225 | 6.4 | 17.7 | 0.00 | 0.00 | 0.00 | 49 | 1008.4 |
| 20260505113516 | 21 | 225 | 3.2 | 12.9 | 0.00 | 0.00 | 0.00 | 49 | 1008.4 |
| 20260505113016 | 21 | 225 | 4.8 | 19.3 | 0.00 | 0.00 | 0.00 | 49 | 1008.4 |
| 20260505112517 | 21 | 225 | 3.2 | 11.3 | 0.00 | 0.00 | 0.00 | 49 | 1008.4 |
| 20260505112016 | 21 | 225 | 4.8 | 16.1 | 0.00 | 0.00 | 0.00 | 49 | 1008.3 |
| 20260505111516 | 21 | 225 | 3.2 | 14.5 | 0.00 | 0.00 | 0.00 | 49 | 1008.3 |
| 20260505111016 | 21 | 225 | 4.8 | 9.7 | 0.00 | 0.00 | 0.00 | 49 | 1008.2 |
| 20260505110516 | 21 | 225 | 1.6 | 8.0 | 0.00 | 0.00 | 0.00 | 49 | 1008.1 |
| 20260505102017 | 21 | 225 | 3.2 | 12.9 | 0.00 | 0.00 | 0.00 | 49 | 1008.4 |
| 20260505101536 | 21 | 225 | 3.2 | 9.7 | 0.00 | 0.00 | 0.00 | 49 | 1008.4 |
| 20260505101016 | 21 | 225 | 3.2 | 9.7 | 0.00 | 0.00 | 0.00 | 49 | 1008.3 |
| 20260505100516 | 21 | 225 | 4.8 | 12.9 | 0.00 | 0.00 | 0.00 | 50 | 1008.2 |
| 20260505100016 | 21 | 225 | 4.8 | 14.5 | 0.00 | 0.00 | 0.00 | 50 | 1008.3 |
| 20260505095516 | 21 | 225 | 3.2 | 17.7 | 0.00 | 0.00 | 0.00 | 50 | 1008.1 |
| 20260505095016 | 21 | 225 | 4.8 | 16.1 | 0.00 | 0.00 | 0.00 | 50 | 1008.2 |
| 20260505094516 | 21 | 225 | 4.8 | 11.3 | 0.00 | 0.00 | 0.00 | 50 | 1008.1 |
| 20260505094016 | 21 | 225 | 3.2 | 14.5 | 0.00 | 0.00 | 0.00 | 50 | 1008.0 |
| 20260505093536 | 21 | 225 | 4.8 | 17.7 | 0.00 | 0.00 | 0.00 | 50 | 1008.2 |
| 20260505093016 | 21 | 203 | 3.2 | 12.9 | 0.00 | 0.00 | 0.00 | 50 | 1008.2 |
| 20260505092516 | 21 | 225 | 4.8 | 19.3 | 0.00 | 0.00 | 0.00 | 50 | 1008.3 |
| 20260505092036 | 21 | 225 | 4.8 | 12.9 | 0.00 | 0.00 | 0.00 | 50 | 1008.3 |
| 20260505091516 | 21 | 203 | 1.6 | 8.0 | 0.00 | 0.00 | 0.00 | 50 | 1008.3 |
| 20260505091016 | 21 | 225 | 4.8 | 12.9 | 0.00 | 0.00 | 0.00 | 51 | 1008.6 |
| 20260505090516 | 21 | 225 | 4.8 | 16.1 | 0.00 | 0.00 | 0.00 | 51 | 1008.5 |
| 20260505090016 | 21 | 203 | 4.8 | 19.3 | 0.00 | 0.00 | 0.00 | 51 | 1008.5 |
| 20260505085516 | 21 | 225 | 4.8 | 19.3 | 0.00 | 0.00 | 0.00 | 51 | 1008.7 |
| 20260505085016 | 21 | 225 | 4.8 | 12.9 | 0.00 | 0.00 | 0.00 | 51 | 1008.6 |
| 20260505084516 | 21 | 225 | 4.8 | 11.3 | 0.00 | 0.00 | 0.00 | 51 | 1008.8 |
| 20260505084016 | 21 | 225 | 3.2 | 11.3 | 0.00 | 0.00 | 0.00 | 51 | 1008.8 |
| 20260505083516 | 21 | 225 | 3.2 | 11.3 | 0.00 | 0.00 | 0.00 | 51 | 1009.0 |
| 20260505083036 | 21 | 225 | 3.2 | 9.7 | 0.00 | 0.00 | 0.00 | 51 | 1009.1 |
| 20260505082516 | 21 | 225 | 4.8 | 19.3 | 0.00 | 0.00 | 0.00 | 51 | 1009.2 |
| 20260505082016 | 21 | 225 | 3.2 | 12.9 | 0.00 | 0.00 | 0.00 | 51 | 1009.4 |
| 20260505081515 | 21 | 225 | 4.8 | 16.1 | 0.00 | 0.00 | 0.00 | 51 | 1009.5 |
| 20260505081016 | 21 | 225 | 1.6 | 12.9 | 0.00 | 0.00 | 0.00 | 51 | 1009.4 |
| 20260505080516 | 21 | 225 | 4.8 | 14.5 | 0.00 | 0.00 | 0.00 | 51 | 1009.3 |
| 20260505080035 | 21 | 203 | 4.8 | 16.1 | 0.00 | 0.00 | 0.00 | 51 | 1009.3 |
| 20260505075515 | 21 | 225 | 3.2 | 11.3 | 0.00 | 0.00 | 0.00 | 52 | 1009.5 |
| 20260505075036 | 21 | 225 | 4.8 | 19.3 | 0.00 | 0.00 | 0.00 | 52 | 1009.5 |
| 20260505074515 | 21 | 225 | 3.2 | 9.7 | 0.00 | 0.00 | 0.00 | 52 | 1009.6 |
| 20260505074016 | 21 | 135 | 3.2 | 9.7 | 0.00 | 0.00 | 0.00 | 52 | 1009.5 |
| 20260505073516 | 21 | 225 | 6.4 | 17.7 | 0.00 | 0.00 | 0.00 | 52 | 1009.7 |
| 20260505073016 | 21 | 225 | 4.8 | 17.7 | 0.00 | 0.00 | 0.00 | 52 | 1009.8 |
| 20260505072515 | 21 | 225 | 3.2 | 16.1 | 0.00 | 0.00 | 0.00 | 52 | 1009.9 |
| 20260505072116 | 21 | 225 | 3.2 | 16.1 | 0.00 | 0.00 | 0.00 | 53 | 1010.1 |
| 20260505071515 | 21 | 225 | 4.8 | 12.9 | 0.00 | 0.00 | 0.00 | 53 | 1010.1 |
| 20260505071015 | 21 | 225 | 3.2 | 11.3 | 0.00 | 0.00 | 0.00 | 53 | 1010.1 |
| 20260505070535 | 21 | 225 | 3.2 | 12.9 | 0.00 | 0.00 | 0.00 | 53 | 1010.1 |
| 20260505070016 | 21 | 225 | 4.8 | 19.3 | 0.00 | 0.00 | 0.00 | 54 | 1010.2 |
| 20260505065518 | 21 | 225 | 4.8 | 12.9 | 0.00 | 0.00 | 0.00 | 54 | 1010.2 |
| 20260505065017 | 21 | 225 | 4.8 | 12.9 | 0.00 | 0.00 | 0.00 | 54 | 1010.3 |
| 20260505064515 | 21 | 158 | 3.2 | 14.5 | 0.00 | 0.00 | 0.00 | 55 | 1010.3 |
| 20260505064015 | 21 | 225 | 4.8 | 12.9 | 0.00 | 0.00 | 0.00 | 55 | 1010.3 |
| 20260505063515 | 21 | 225 | 6.4 | 16.1 | 0.00 | 0.00 | 0.00 | 55 | 1010.4 |
| 20260505063015 | 21 | 225 | 3.2 | 12.9 | 0.00 | 0.00 | 0.00 | 55 | 1010.5 |
| 20260505062516 | 21 | 225 | 3.2 | 12.9 | 0.00 | 0.00 | 0.00 | 55 | 1010.5 |
| 20260505062015 | 21 | 225 | 3.2 | 11.3 | 0.00 | 0.00 | 0.00 | 55 | 1010.6 |
| 20260505061516 | 21 | 225 | 4.8 | 17.7 | 0.00 | 0.00 | 0.00 | 55 | 1010.6 |
| 20260505061015 | 21 | 225 | 4.8 | 17.7 | 0.00 | 0.00 | 0.00 | 55 | 1010.4 |
| 20260505060515 | 21 | 225 | 3.2 | 12.9 | 0.00 | 0.00 | 0.00 | 55 | 1010.5 |
| 20260505060035 | 21 | 225 | 3.2 | 12.9 | 0.00 | 0.00 | 0.00 | 55 | 1010.5 |
| 20260505055517 | 21 | 203 | 4.8 | 16.1 | 0.00 | 0.00 | 0.00 | 55 | 1010.5 |
| 20260505055017 | 21 | 225 | 4.8 | 14.5 | 0.00 | 0.00 | 0.00 | 55 | 1010.6 |
| 20260505054518 | 21 | 225 | 3.2 | 11.3 | 0.00 | 0.00 | 0.00 | 55 | 1010.4 |
| 20260505054017 | 21 | 225 | 3.2 | 12.9 | 0.00 | 0.00 | 0.00 | 55 | 1010.5 |
| 20260505053517 | 21 | 225 | 4.8 | 12.9 | 0.00 | 0.00 | 0.00 | 55 | 1010.5 |
| 20260505053018 | 21 | 225 | 3.2 | 14.5 | 0.00 | 0.00 | 0.00 | 55 | 1010.4 |
| 20260505052518 | 21 | 225 | 3.2 | 11.3 | 0.00 | 0.00 | 0.00 | 55 | 1010.4 |
| 20260505052018 | 21 | 225 | 4.8 | 16.1 | 0.00 | 0.00 | 0.00 | 55 | 1010.5 |
| 20260505051518 | 21 | 225 | 3.2 | 9.7 | 0.00 | 0.00 | 0.00 | 55 | 1010.3 |
| 20260505051018 | 21 | 225 | 1.6 | 9.7 | 0.00 | 0.00 | 0.00 | 56 | 1010.4 |
| 20260505050519 | 21 | 315 | 1.6 | 6.4 | 0.00 | 0.00 | 0.00 | 56 | 1010.4 |
| 20260505041516 | 21 | 68 | 1.6 | 8.0 | 0.00 | 0.00 | 0.00 | 57 | 1010.3 |
| 20260505041016 | 22 | 225 | 1.6 | 4.8 | 0.00 | 0.00 | 0.00 | 57 | 1010.5 |
| 20260505040516 | 22 | 225 | 1.6 | 4.8 | 0.00 | 0.00 | 0.00 | 57 | 1010.5 |
| 20260505040016 | 22 | 225 | 1.6 | 6.4 | 0.00 | 0.00 | 0.00 | 57 | 1010.5 |
| 20260505035516 | 22 | 135 | 1.6 | 4.8 | 0.00 | 0.00 | 0.00 | 57 | 1010.5 |
| 20260505035017 | 22 | 0.0 | 3.2 | 0.00 | 0.00 | 0.00 | 57 | 1010.4 | |
| 20260505034515 | 22 | 225 | 1.6 | 8.0 | 0.00 | 0.00 | 0.00 | 57 | 1010.5 |
| 20260505034015 | 22 | 225 | 1.6 | 8.0 | 0.00 | 0.00 | 0.00 | 57 | 1010.5 |
| 20260505033519 | 22 | 203 | 1.6 | 11.3 | 0.00 | 0.00 | 0.00 | 57 | 1010.5 |
| 20260505033018 | 22 | 225 | 1.6 | 11.3 | 0.00 | 0.00 | 0.00 | 57 | 1010.6 |
| 20260505032517 | 22 | 225 | 1.6 | 9.7 | 0.00 | 0.00 | 0.00 | 57 | 1010.4 |
| 20260505032018 | 22 | 248 | 1.6 | 4.8 | 0.00 | 0.00 | 0.00 | 57 | 1010.5 |
| 20260505031517 | 22 | 225 | 1.6 | 9.7 | 0.00 | 0.00 | 0.00 | 57 | 1010.5 |
| 20260505031017 | 22 | 248 | 1.6 | 6.4 | 0.00 | 0.00 | 0.00 | 57 | 1010.6 |
| 20260505030517 | 22 | 135 | 3.2 | 11.3 | 0.00 | 0.00 | 0.00 | 57 | 1010.5 |
| 20260505030017 | 22 | 225 | 1.6 | 11.3 | 0.00 | 0.00 | 0.00 | 57 | 1010.5 |
| 20260505025517 | 22 | 135 | 3.2 | 11.3 | 0.00 | 0.00 | 0.00 | 57 | 1010.3 |
| 20260505025017 | 22 | 225 | 1.6 | 9.7 | 0.00 | 0.00 | 0.00 | 57 | 1010.2 |
| 20260505024518 | 22 | 225 | 1.6 | 8.0 | 0.00 | 0.00 | 0.00 | 57 | 1010.2 |
| 20260505024017 | 22 | 225 | 3.2 | 14.5 | 0.00 | 0.00 | 0.00 | 57 | 1010.4 |
| 20260505023517 | 22 | 203 | 1.6 | 9.7 | 0.00 | 0.00 | 0.00 | 56 | 1010.2 |
| 20260505023037 | 22 | 225 | 1.6 | 8.0 | 0.00 | 0.00 | 0.00 | 56 | 1010.1 |
| 20260505022517 | 23 | 203 | 1.6 | 3.2 | 0.00 | 0.00 | 0.00 | 56 | 1010.0 |
| 20260505022017 | 23 | 135 | 1.6 | 9.7 | 0.00 | 0.00 | 0.00 | 56 | 1010.0 |
| 20260505021518 | 23 | 225 | 1.6 | 8.0 | 0.00 | 0.00 | 0.00 | 56 | 1009.9 |
| 20260505021017 | 23 | 225 | 1.6 | 6.4 | 0.00 | 0.00 | 0.00 | 56 | 1009.8 |
| 20260505020518 | 23 | 248 | 1.6 | 6.4 | 0.00 | 0.00 | 0.00 | 56 | 1009.6 |
| 20260505020017 | 23 | 0.0 | 3.2 | 0.00 | 0.00 | 0.00 | 56 | 1009.7 | |
| 20260505015517 | 23 | 225 | 1.6 | 4.8 | 0.00 | 0.00 | 0.00 | 56 | 1009.7 |
| 20260505015017 | 23 | 225 | 1.6 | 6.4 | 0.00 | 0.00 | 0.00 | 56 | 1009.7 |
| 20260505014517 | 23 | 225 | 1.6 | 6.4 | 0.00 | 0.00 | 0.00 | 55 | 1009.8 |
| 20260505014017 | 23 | 225 | 1.6 | 6.4 | 0.00 | 0.00 | 0.00 | 55 | 1009.8 |
| 20260505013517 | 23 | 225 | 1.6 | 4.8 | 0.00 | 0.00 | 0.00 | 55 | 1009.8 |
| 20260505013017 | 23 | 203 | 1.6 | 4.8 | 0.00 | 0.00 | 0.00 | 55 | 1009.7 |
| 20260505012558 | 23 | 248 | 1.6 | 8.0 | 0.00 | 0.00 | 0.00 | 55 | 1009.6 |
| 20260505012017 | 23 | 158 | 1.6 | 6.4 | 0.00 | 0.00 | 0.00 | 54 | 1009.6 |
| 20260505011517 | 23 | 135 | 1.6 | 4.8 | 0.00 | 0.00 | 0.00 | 54 | 1009.7 |
| 20260505011037 | 24 | 225 | 1.6 | 4.8 | 0.00 | 0.00 | 0.00 | 54 | 1009.7 |
| 20260505010517 | 24 | 0.0 | 4.8 | 0.00 | 0.00 | 0.00 | 54 | 1009.7 | |
| 20260505010017 | 24 | 135 | 1.6 | 4.8 | 0.00 | 0.00 | 0.00 | 53 | 1009.5 |
| 20260505005537 | 24 | 135 | 1.6 | 6.4 | 0.00 | 0.00 | 0.00 | 53 | 1009.5 |
| 20260505005017 | 25 | 158 | 1.6 | 8.0 | 0.00 | 0.00 | 0.00 | 53 | 1009.5 |
| 20260505004517 | 25 | 225 | 1.6 | 4.8 | 0.00 | 0.00 | 0.00 | 53 | 1009.5 |
| 20260505004017 | 25 | 225 | 3.2 | 8.0 | 0.00 | 0.00 | 0.00 | 52 | 1009.6 |
| 20260505003538 | 25 | 180 | 3.2 | 9.7 | 0.00 | 0.00 | 0.00 | 52 | 1009.5 |
| 20260505003017 | 25 | 135 | 1.6 | 6.4 | 0.00 | 0.00 | 0.00 | 51 | 1009.6 |
| 20260505002517 | 25 | 203 | 1.6 | 3.2 | 0.00 | 0.00 | 0.00 | 51 | 1009.6 |
| 20260505002037 | 25 | 248 | 1.6 | 8.0 | 0.00 | 0.00 | 0.00 | 51 | 1009.7 |
| 20260505001537 | 26 | 135 | 1.6 | 8.0 | 0.00 | 0.00 | 0.00 | 50 | 1009.7 |
| 20260505001017 | 26 | 225 | 1.6 | 8.0 | 0.00 | 0.00 | 0.00 | 50 | 1009.7 |
| 20260505000517 | 26 | 225 | 3.2 | 6.4 | 0.00 | 0.00 | 0.00 | 49 | 1009.7 |
| 20260505000017 | 26 | 225 | 1.6 | 8.0 | 0.00 | 0.00 | 0.00 | 49 | 1009.8 |
| 20260504235517 | 26 | 225 | 3.2 | 11.3 | 0.00 | 0.00 | 0.00 | 49 | 1009.9 |
| 20260504235017 | 26 | 225 | 3.2 | 12.9 | 0.00 | 0.00 | 0.00 | 48 | 1009.9 |
| 20260504234517 | 26 | 225 | 4.8 | 12.9 | 0.00 | 0.00 | 0.00 | 48 | 1010.1 |
| 20260504234017 | 26 | 225 | 4.8 | 9.7 | 0.00 | 0.00 | 0.00 | 48 | 1010.2 |
| 20260504233517 | 26 | 225 | 4.8 | 17.7 | 0.00 | 0.00 | 0.00 | 48 | 1010.3 |
| 20260504233018 | 26 | 225 | 3.2 | 9.7 | 0.00 | 0.00 | 0.00 | 48 | 1010.2 |
| 20260504232518 | 26 | 203 | 4.8 | 16.1 | 0.00 | 0.00 | 0.00 | 48 | 1010.2 |
| 20260504232017 | 26 | 225 | 3.2 | 9.7 | 0.00 | 0.00 | 0.00 | 49 | 1010.2 |
| 20260504231537 | 26 | 225 | 3.2 | 12.9 | 0.00 | 0.00 | 0.00 | 47 | 1010.3 |
| 20260504231037 | 26 | 225 | 3.2 | 16.1 | 0.00 | 0.00 | 0.00 | 47 | 1010.4 |
| 20260504230517 | 26 | 225 | 3.2 | 12.9 | 0.00 | 0.00 | 0.00 | 48 | 1010.3 |
| 20260504230017 | 26 | 225 | 3.2 | 9.7 | 0.00 | 0.00 | 0.00 | 47 | 1010.3 |
| 20260504225517 | 27 | 135 | 1.6 | 9.7 | 0.00 | 0.00 | 0.00 | 47 | 1010.5 |
| 20260504225017 | 27 | 225 | 3.2 | 12.9 | 0.00 | 0.00 | 0.00 | 47 | 1010.5 |
| 20260504224517 | 27 | 225 | 3.2 | 12.9 | 0.00 | 0.00 | 0.00 | 46 | 1010.7 |
| 20260504224039 | 27 | 225 | 3.2 | 8.0 | 0.00 | 0.00 | 0.00 | 46 | 1010.8 |
| 20260504223517 | 27 | 225 | 4.8 | 11.3 | 0.00 | 0.00 | 0.00 | 47 | 1010.9 |
| 20260504223017 | 27 | 225 | 4.8 | 19.3 | 0.00 | 0.00 | 0.00 | 46 | 1011.0 |
| 20260504222517 | 27 | 225 | 4.8 | 12.9 | 0.00 | 0.00 | 0.00 | 46 | 1010.8 |
| 20260504222017 | 27 | 225 | 3.2 | 11.3 | 0.00 | 0.00 | 0.00 | 46 | 1010.9 |
| 20260504221517 | 27 | 225 | 3.2 | 12.9 | 0.00 | 0.00 | 0.00 | 46 | 1010.9 |
| 20260504221037 | 27 | 135 | 3.2 | 11.3 | 0.00 | 0.00 | 0.00 | 45 | 1010.7 |
| 20260504220517 | 27 | 225 | 6.4 | 12.9 | 0.00 | 0.00 | 0.00 | 45 | 1011.0 |
| 20260504220017 | 27 | 225 | 6.4 | 19.3 | 0.00 | 0.00 | 0.00 | 45 | 1011.0 |
| 20260504215517 | 27 | 225 | 8.0 | 22.5 | 0.00 | 0.00 | 0.00 | 44 | 1011.0 |
| 20260504215017 | 27 | 225 | 8.0 | 24.1 | 0.00 | 0.00 | 0.00 | 44 | 1011.0 |
| 20260504214517 | 27 | 225 | 4.8 | 16.1 | 0.00 | 0.00 | 0.00 | 44 | 1011.2 |
| 20260504214017 | 27 | 135 | 6.4 | 16.1 | 0.00 | 0.00 | 0.00 | 43 | 1011.1 |
| 20260504213517 | 27 | 225 | 6.4 | 19.3 | 0.00 | 0.00 | 0.00 | 43 | 1011.2 |
| 20260504213037 | 27 | 225 | 3.2 | 12.9 | 0.00 | 0.00 | 0.00 | 43 | 1011.3 |
| 20260504212517 | 27 | 225 | 6.4 | 14.5 | 0.00 | 0.00 | 0.00 | 44 | 1011.4 |
| 20260504212057 | 27 | 225 | 8.0 | 24.1 | 0.00 | 0.00 | 0.00 | 42 | 1011.4 |
| 20260504211537 | 27 | 225 | 4.8 | 12.9 | 0.00 | 0.00 | 0.00 | 43 | 1011.6 |
| 20260504211017 | 27 | 203 | 6.4 | 19.3 | 0.00 | 0.00 | 0.00 | 42 | 1011.7 |
| 20260504210517 | 28 | 135 | 4.8 | 16.1 | 0.00 | 0.00 | 0.00 | 42 | 1011.9 |
| 20260504210018 | 28 | 225 | 4.8 | 12.9 | 0.00 | 0.00 | 0.00 | 42 | 1011.9 |
| 20260504205517 | 28 | 225 | 6.4 | 17.7 | 0.00 | 0.00 | 0.00 | 42 | 1012.0 |
| 20260504205016 | 27 | 203 | 6.4 | 20.9 | 0.00 | 0.00 | 0.00 | 42 | 1012.2 |
| 20260504204537 | 28 | 225 | 6.4 | 16.1 | 0.00 | 0.00 | 0.00 | 41 | 1012.2 |
| 20260504204018 | 28 | 225 | 4.8 | 12.9 | 0.00 | 0.00 | 0.00 | 42 | 1012.5 |
| 20260504203517 | 28 | 225 | 4.8 | 11.3 | 0.00 | 0.00 | 0.00 | 43 | 1012.7 |
| 20260504203017 | 27 | 225 | 4.8 | 16.1 | 0.00 | 0.00 | 0.00 | 43 | 1012.8 |
| 20260504202537 | 27 | 203 | 4.8 | 20.9 | 0.00 | 0.00 | 0.00 | 43 | 1012.8 |
| 20260504202017 | 27 | 225 | 4.8 | 12.9 | 0.00 | 0.00 | 0.00 | 43 | 1012.9 |
| 20260504201517 | 27 | 225 | 4.8 | 16.1 | 0.00 | 0.00 | 0.00 | 41 | 1013.0 |
| 20260504201017 | 27 | 135 | 6.4 | 16.1 | 0.00 | 0.00 | 0.00 | 42 | 1013.1 |
| 20260504200516 | 28 | 225 | 8.0 | 19.3 | 0.00 | 0.00 | 0.00 | 40 | 1013.1 |
| 20260504200036 | 28 | 225 | 6.4 | 20.9 | 0.00 | 0.00 | 0.00 | 41 | 1013.0 |
| 20260504195517 | 28 | 225 | 6.4 | 17.7 | 0.00 | 0.00 | 0.00 | 42 | 1013.2 |
| 20260504195017 | 28 | 225 | 4.8 | 12.9 | 0.00 | 0.00 | 0.00 | 41 | 1013.1 |
| 20260504194517 | 27 | 225 | 6.4 | 14.5 | 0.00 | 0.00 | 0.00 | 41 | 1013.3 |
| 20260504194016 | 27 | 225 | 6.4 | 16.1 | 0.00 | 0.00 | 0.00 | 40 | 1013.7 |
| 20260504193516 | 27 | 225 | 3.2 | 11.3 | 0.00 | 0.00 | 0.00 | 40 | 1013.8 |
| 20260504193017 | 27 | 225 | 4.8 | 16.1 | 0.00 | 0.00 | 0.00 | 40 | 1013.7 |
| 20260504192516 | 27 | 225 | 4.8 | 19.3 | 0.00 | 0.00 | 0.00 | 41 | 1013.7 |
| 20260504192017 | 27 | 225 | 6.4 | 17.7 | 0.00 | 0.00 | 0.00 | 40 | 1013.8 |
| 20260504191516 | 27 | 225 | 4.8 | 12.9 | 0.00 | 0.00 | 0.00 | 40 | 1013.8 |
| 20260504191016 | 27 | 225 | 6.4 | 14.5 | 0.00 | 0.00 | 0.00 | 40 | 1013.8 |
| 20260504190537 | 27 | 225 | 6.4 | 20.9 | 0.00 | 0.00 | 0.00 | 39 | 1013.8 |
| 20260504190017 | 27 | 225 | 4.8 | 11.3 | 0.00 | 0.00 | 0.00 | 41 | 1013.8 |
| 20260504185537 | 27 | 203 | 6.4 | 17.7 | 0.00 | 0.00 | 0.00 | 41 | 1013.8 |
| 20260504185017 | 27 | 203 | 8.0 | 16.1 | 0.00 | 0.00 | 0.00 | 39 | 1014.0 |
| 20260504184517 | 27 | 135 | 6.4 | 17.7 | 0.00 | 0.00 | 0.00 | 38 | 1013.9 |
| 20260504184017 | 27 | 225 | 4.8 | 25.7 | 0.00 | 0.00 | 0.00 | 39 | 1014.1 |
| 20260504183516 | 27 | 225 | 6.4 | 16.1 | 0.00 | 0.00 | 0.00 | 40 | 1014.0 |
| 20260504183016 | 27 | 225 | 8.0 | 22.5 | 0.00 | 0.00 | 0.00 | 38 | 1014.3 |
| 20260504182516 | 27 | 225 | 8.0 | 17.7 | 0.00 | 0.00 | 0.00 | 39 | 1014.4 |
| 20260504182036 | 27 | 225 | 4.8 | 22.5 | 0.00 | 0.00 | 0.00 | 40 | 1014.5 |
| 20260504181516 | 27 | 135 | 4.8 | 20.9 | 0.00 | 0.00 | 0.00 | 39 | 1014.6 |
| 20260504181016 | 27 | 225 | 4.8 | 11.3 | 0.00 | 0.00 | 0.00 | 38 | 1014.5 |
| 20260504180516 | 26 | 225 | 6.4 | 19.3 | 0.00 | 0.00 | 0.00 | 40 | 1014.6 |
| 20260504180016 | 26 | 225 | 4.8 | 12.9 | 0.00 | 0.00 | 0.00 | 39 | 1014.7 |
| 20260504175537 | 26 | 225 | 6.4 | 17.7 | 0.00 | 0.00 | 0.00 | 38 | 1014.8 |
| 20260504175016 | 26 | 225 | 6.4 | 16.1 | 0.00 | 0.00 | 0.00 | 41 | 1014.7 |
| 20260504174517 | 26 | 135 | 6.4 | 19.3 | 0.00 | 0.00 | 0.00 | 41 | 1014.9 |
| 20260504174037 | 26 | 135 | 6.4 | 17.7 | 0.00 | 0.00 | 0.00 | 40 | 1015.0 |
| 20260504173517 | 26 | 225 | 4.8 | 11.3 | 0.00 | 0.00 | 0.00 | 41 | 1015.1 |
| 20260504173057 | 26 | 225 | 9.7 | 20.9 | 0.00 | 0.00 | 0.00 | 39 | 1015.2 |
| 20260504172516 | 25 | 248 | 6.4 | 16.1 | 0.00 | 0.00 | 0.00 | 42 | 1015.2 |
| 20260504172017 | 26 | 225 | 4.8 | 11.3 | 0.00 | 0.00 | 0.00 | 41 | 1015.2 |
| 20260504171516 | 26 | 225 | 6.4 | 17.7 | 0.00 | 0.00 | 0.00 | 40 | 1015.3 |
| 20260504171016 | 25 | 225 | 8.0 | 19.3 | 0.00 | 0.00 | 0.00 | 40 | 1015.3 |
| 20260504170517 | 25 | 225 | 4.8 | 19.3 | 0.00 | 0.00 | 0.00 | 40 | 1015.5 |